createdAt,value
2024-03-08T00:00:16.079Z,70.93
2024-03-08T00:02:45.182Z,70.98
2024-03-08T00:05:13.406Z,71.07
2024-03-08T00:07:41.515Z,71.06
2024-03-08T00:10:13.327Z,70.97
2024-03-08T00:12:46.152Z,70.92
2024-03-08T00:15:19.533Z,70.82
2024-03-08T00:17:48.743Z,70.65
2024-03-08T00:20:19.727Z,70.43
2024-03-08T00:22:47.703Z,70.39
2024-03-08T00:25:14.969Z,70.39
2024-03-08T00:27:45.704Z,70.41
2024-03-08T00:30:14.871Z,70.46
2024-03-08T00:32:42.643Z,70.41
2024-03-08T00:35:10.277Z,70.56
2024-03-08T00:37:37.587Z,70.63
2024-03-08T00:40:06.070Z,70.87
2024-03-08T00:42:34.920Z,71.08
2024-03-08T00:45:02.783Z,71.05
2024-03-08T00:47:30.406Z,71.24
2024-03-08T00:49:58.298Z,71.37
2024-03-08T00:52:25.928Z,71.38
2024-03-08T00:54:53.190Z,71.38
2024-03-08T00:57:20.635Z,71.34
2024-03-08T00:59:48.597Z,71.38
2024-03-08T01:02:16.498Z,71.32
2024-03-08T01:04:43.704Z,71.46
2024-03-08T01:07:11.038Z,71.54
2024-03-08T01:09:38.285Z,71.50
2024-03-08T01:12:06.674Z,71.48
2024-03-08T01:14:34.604Z,71.45
2024-03-08T01:17:01.995Z,71.52
2024-03-08T01:19:29.297Z,71.55
2024-03-08T01:21:58.905Z,71.57
2024-03-08T01:24:26.770Z,71.52
2024-03-08T01:26:54.030Z,71.50
2024-03-08T01:29:21.217Z,71.58
2024-03-08T01:31:48.431Z,71.61
2024-03-08T01:34:15.548Z,71.57
2024-03-08T01:36:42.841Z,71.65
2024-03-08T01:39:11.071Z,71.74
2024-03-08T01:41:38.518Z,71.65
2024-03-08T01:44:08.693Z,71.95
2024-03-08T01:46:36.961Z,72.09
2024-03-08T01:49:04.958Z,72.13
2024-03-08T01:51:32.740Z,72.16
2024-03-08T01:54:02.721Z,72.11
2024-03-08T01:56:33.348Z,72.20
2024-03-08T01:59:01.216Z,72.26
2024-03-08T02:04:23.468Z,72.28
2024-03-08T02:06:51.381Z,72.19
2024-03-08T02:09:18.795Z,71.93
2024-03-08T02:11:47.465Z,72.04
2024-03-08T02:14:15.670Z,72.30
2024-03-08T02:16:42.779Z,72.45
2024-03-08T02:19:11.234Z,72.00
2024-03-08T02:21:39.340Z,72.10
2024-03-08T02:24:07.812Z,72.09
2024-03-08T02:26:35.157Z,71.98
2024-03-08T02:29:03.446Z,72.34
2024-03-08T02:31:30.592Z,72.69
2024-03-08T02:33:57.666Z,72.84
2024-03-08T02:36:25.089Z,72.58
2024-03-08T02:38:52.236Z,72.77
2024-03-08T02:41:19.584Z,72.72
2024-03-08T02:43:46.951Z,72.94
2024-03-08T02:46:14.008Z,73.16
2024-03-08T02:48:41.388Z,73.12
2024-03-08T02:51:08.677Z,73.14
2024-03-08T02:53:36.735Z,72.98
2024-03-08T02:56:03.967Z,72.81
2024-03-08T02:58:31.185Z,72.33
2024-03-08T03:00:59.067Z,72.21
2024-03-08T03:03:26.263Z,71.83
2024-03-08T03:05:53.487Z,72.00
2024-03-08T03:08:20.905Z,72.18
2024-03-08T03:10:48.118Z,72.34
2024-03-08T03:13:18.075Z,72.44
2024-03-08T03:15:47.495Z,72.54
2024-03-08T03:18:14.945Z,72.50
2024-03-08T03:20:42.631Z,72.62
2024-03-08T03:23:10.653Z,72.59
2024-03-08T03:25:40.372Z,72.49
2024-03-08T03:28:09.594Z,72.51
2024-03-08T03:30:36.798Z,72.55
2024-03-08T03:33:09.077Z,72.43
2024-03-08T03:35:38.330Z,72.30
2024-03-08T03:38:10.542Z,72.12
2024-03-08T03:40:40.540Z,72.24
2024-03-08T03:43:09.105Z,72.34
2024-03-08T03:45:37.821Z,72.06
2024-03-08T03:48:12.861Z,71.90
2024-03-08T03:50:41.125Z,71.85
2024-03-08T03:53:10.230Z,71.84
2024-03-08T03:55:41.315Z,71.85
2024-03-08T03:58:11.794Z,71.76
2024-03-08T04:00:39.775Z,71.77
2024-03-08T04:03:07.696Z,71.66
2024-03-08T04:05:34.915Z,71.62
2024-03-08T04:08:02.333Z,71.58
2024-03-08T04:10:29.678Z,71.47
2024-03-08T04:12:58.243Z,71.39
2024-03-08T04:15:25.733Z,71.33
2024-03-08T04:17:52.964Z,71.32
2024-03-08T04:20:20.164Z,71.26
2024-03-08T04:22:50.878Z,71.32
2024-03-08T04:25:18.460Z,71.31
2024-03-08T04:27:45.987Z,71.36
2024-03-08T04:30:13.866Z,71.36
2024-03-08T04:32:43.052Z,71.36
2024-03-08T04:35:10.549Z,71.36
2024-03-08T04:37:38.002Z,71.33
2024-03-08T04:40:05.760Z,71.35
2024-03-08T04:42:36.581Z,71.43
2024-03-08T04:45:03.878Z,71.47
2024-03-08T04:47:31.413Z,71.47
2024-03-08T04:49:59.768Z,71.44
2024-03-08T04:52:27.531Z,71.36
2024-03-08T04:54:54.701Z,71.31
2024-03-08T04:57:22.040Z,71.23
2024-03-08T04:59:49.840Z,71.16
2024-03-08T05:02:18.700Z,71.11
2024-03-08T05:04:45.998Z,71.05
2024-03-08T05:07:13.251Z,71.04
2024-03-08T05:09:41.963Z,71.08
2024-03-08T05:12:09.447Z,71.09
2024-03-08T05:14:36.749Z,71.11
2024-03-08T05:17:04.027Z,71.13
2024-03-08T05:19:35.126Z,71.14
2024-03-08T05:22:02.789Z,71.10
2024-03-08T05:24:31.614Z,71.06
2024-03-08T05:27:00.936Z,71.02
2024-03-08T05:29:28.243Z,71.01
2024-03-08T05:31:55.560Z,71.05
2024-03-08T05:34:23.626Z,71.07
2024-03-08T05:36:52.135Z,71.12
2024-03-08T05:39:21.559Z,71.08
2024-03-08T05:41:49.559Z,70.98
2024-03-08T05:44:20.327Z,70.94
2024-03-08T05:46:50.231Z,70.86
2024-03-08T05:49:17.453Z,70.79
2024-03-08T05:51:44.880Z,70.73
2024-03-08T05:54:15.629Z,70.71
2024-03-08T05:56:45.516Z,70.53
2024-03-08T05:59:13.815Z,70.62
2024-03-08T06:01:43.215Z,70.51
2024-03-08T06:04:13.341Z,70.52
2024-03-08T06:06:41.572Z,70.46
2024-03-08T06:09:19.291Z,70.45
2024-03-08T06:11:46.738Z,70.47
2024-03-08T06:14:13.932Z,70.49
2024-03-08T06:16:41.042Z,70.61
2024-03-08T06:19:08.315Z,70.69
2024-03-08T06:21:35.460Z,70.64
2024-03-08T06:24:04.641Z,70.55
2024-03-08T06:26:32.916Z,70.26
2024-03-08T06:29:01.205Z,70.06
2024-03-08T06:31:28.429Z,69.93
2024-03-08T06:33:59.710Z,69.93
2024-03-08T06:36:27.024Z,69.90
2024-03-08T06:38:54.471Z,69.79
2024-03-08T06:41:21.811Z,69.82
2024-03-08T06:43:50.473Z,69.70
2024-03-08T06:46:17.902Z,69.47
2024-03-08T06:48:47.284Z,69.40
2024-03-08T06:51:16.124Z,68.70
2024-03-08T06:53:43.932Z,68.40
2024-03-08T06:56:11.185Z,68.34
2024-03-08T06:58:38.811Z,68.39
2024-03-08T07:01:09.303Z,68.09
2024-03-08T07:03:37.104Z,68.41
2024-03-08T07:06:04.916Z,67.60
2024-03-08T07:08:34.276Z,67.17
2024-03-08T07:11:01.585Z,66.19
2024-03-08T07:13:31.049Z,65.55
2024-03-08T07:15:58.501Z,65.25
2024-03-08T07:18:25.750Z,65.23
2024-03-08T07:20:53.316Z,65.06
2024-03-08T07:23:38.811Z,65.20
2024-03-08T07:26:06.189Z,65.36
2024-03-08T07:28:33.343Z,65.65
2024-03-08T07:31:18.943Z,65.77
2024-03-08T07:33:46.538Z,65.81
2024-03-08T07:36:13.911Z,65.71
2024-03-08T07:38:41.151Z,65.60
2024-03-08T07:41:08.377Z,65.75
2024-03-08T07:43:35.683Z,65.72
2024-03-08T07:46:02.717Z,65.70
2024-03-08T07:48:29.974Z,65.65
2024-03-08T07:50:57.426Z,65.66
2024-03-08T07:53:28.146Z,65.53
2024-03-08T07:55:55.633Z,65.60
2024-03-08T07:58:23.061Z,65.54
2024-03-08T08:00:50.434Z,65.21
2024-03-08T08:03:19.563Z,65.28
2024-03-08T08:05:47.434Z,65.28
2024-03-08T08:08:14.714Z,65.31
2024-03-08T08:10:41.909Z,65.39
2024-03-08T08:13:09.294Z,65.77
2024-03-08T08:15:36.453Z,65.69
2024-03-08T08:18:07.583Z,65.66
2024-03-08T08:20:35.311Z,65.53
2024-03-08T08:23:02.837Z,64.91
2024-03-08T08:25:30.745Z,64.32
2024-03-08T08:27:58.178Z,64.55
2024-03-08T08:30:25.486Z,64.09
2024-03-08T08:32:52.688Z,63.97
2024-03-08T08:35:21.323Z,63.78
2024-03-08T08:37:48.670Z,63.81
2024-03-08T08:40:16.822Z,64.10
2024-03-08T08:42:44.598Z,64.17
2024-03-08T08:45:16.780Z,63.16
2024-03-08T08:47:46.827Z,63.09
2024-03-08T08:50:14.814Z,63.72
2024-03-08T08:52:45.214Z,62.53
2024-03-08T08:55:16.390Z,61.87
2024-03-08T08:57:45.775Z,62.21
2024-03-08T09:00:16.743Z,62.79
2024-03-08T09:02:44.731Z,62.37
2024-03-08T09:05:13.220Z,62.38
2024-03-08T09:07:40.966Z,62.76
2024-03-08T09:12:41.279Z,60.25
2024-03-08T09:15:14.760Z,59.99
2024-03-08T09:17:43.975Z,57.75
2024-03-08T09:20:12.271Z,57.21
2024-03-08T09:22:39.633Z,57.34
2024-03-08T09:25:08.921Z,57.77
2024-03-08T09:27:39.409Z,58.85
2024-03-08T09:30:08.663Z,59.69
2024-03-08T09:32:36.609Z,58.59
2024-03-08T09:35:04.371Z,60.04
2024-03-08T09:37:32.349Z,59.60
2024-03-08T09:40:00.751Z,57.33
2024-03-08T09:42:28.474Z,57.07
2024-03-08T09:44:55.694Z,58.23
2024-03-08T09:47:26.532Z,57.98
2024-03-08T09:49:54.724Z,58.49
2024-03-08T09:52:22.307Z,57.51
2024-03-08T09:54:51.087Z,58.11
2024-03-08T09:57:21.191Z,57.27
2024-03-08T09:59:49.668Z,58.06
2024-03-08T10:02:17.676Z,59.34
2024-03-08T10:04:48.008Z,59.47
2024-03-08T10:07:15.755Z,59.64
2024-03-08T10:09:48.807Z,58.14
2024-03-08T10:12:17.473Z,56.22
2024-03-08T10:14:45.358Z,55.86
2024-03-08T10:17:12.374Z,56.03
2024-03-08T10:19:40.533Z,55.33
2024-03-08T10:22:08.628Z,54.06
2024-03-08T10:24:38.146Z,56.75
2024-03-08T10:27:06.934Z,56.89
2024-03-08T10:29:34.667Z,56.20
2024-03-08T10:32:03.634Z,56.03
2024-03-08T10:34:31.390Z,53.41
2024-03-08T10:37:05.938Z,54.58
2024-03-08T10:39:37.711Z,55.55
2024-03-08T10:42:06.571Z,51.80
2024-03-08T10:44:45.421Z,52.12
2024-03-08T10:47:31.768Z,51.38
2024-03-08T10:50:07.874Z,53.11
2024-03-08T10:52:36.424Z,54.82
2024-03-08T10:55:04.156Z,54.39
2024-03-08T10:57:32.698Z,54.56
2024-03-08T11:00:00.481Z,55.64
2024-03-08T11:02:28.909Z,53.38
2024-03-08T11:04:58.331Z,52.55
2024-03-08T11:07:29.244Z,51.79
2024-03-08T11:09:57.962Z,52.60
2024-03-08T11:12:38.864Z,53.79
2024-03-08T11:15:15.499Z,52.29
2024-03-08T11:17:52.968Z,50.46
2024-03-08T11:20:24.134Z,50.06
2024-03-08T11:22:53.693Z,52.80
2024-03-08T11:25:43.291Z,53.45
2024-03-08T11:28:20.642Z,51.25
2024-03-08T11:31:03.098Z,51.29
2024-03-08T11:33:31.806Z,51.25
2024-03-08T11:36:18.304Z,51.09
2024-03-08T11:38:45.938Z,50.41
2024-03-08T11:41:19.101Z,50.92
2024-03-08T11:43:51.184Z,52.47
2024-03-08T11:46:19.538Z,52.07
2024-03-08T11:48:49.555Z,50.64
2024-03-08T11:51:19.618Z,49.97
2024-03-08T11:53:48.494Z,48.68
2024-03-08T11:56:17.147Z,48.63
2024-03-08T11:58:58.988Z,50.46
2024-03-08T12:01:26.684Z,50.67
2024-03-08T12:04:01.039Z,50.49
2024-03-08T12:06:38.153Z,51.33
2024-03-08T12:09:05.374Z,50.43
2024-03-08T12:11:33.966Z,51.31
2024-03-08T12:14:02.870Z,51.21
2024-03-08T12:16:30.637Z,50.63
2024-03-08T12:18:57.921Z,50.70
2024-03-08T12:21:27.517Z,48.62
2024-03-08T12:24:12.710Z,49.27
2024-03-08T12:26:41.602Z,50.40
2024-03-08T12:29:29.401Z,48.14
2024-03-08T12:32:00.134Z,47.33
2024-03-08T12:34:28.773Z,48.83
2024-03-08T12:36:56.663Z,49.85
2024-03-08T12:39:28.809Z,48.61
2024-03-08T12:41:58.766Z,48.21
2024-03-08T12:44:26.637Z,48.16
2024-03-08T12:46:55.532Z,49.82
2024-03-08T12:49:24.080Z,50.70
2024-03-08T12:51:51.567Z,50.49
2024-03-08T12:54:18.644Z,51.26
2024-03-08T12:56:45.735Z,51.22
2024-03-08T12:59:13.713Z,50.96
2024-03-08T13:01:41.785Z,50.85
2024-03-08T13:04:12.759Z,50.76
2024-03-08T13:06:40.222Z,51.92
2024-03-08T13:09:07.261Z,52.62
2024-03-08T13:11:38.266Z,52.83
2024-03-08T13:14:09.196Z,52.82
2024-03-08T13:16:36.629Z,53.12
2024-03-08T13:19:03.985Z,52.93
2024-03-08T13:21:31.796Z,52.82
2024-03-08T13:24:01.808Z,52.31
2024-03-08T13:26:34.587Z,52.61
2024-03-08T13:29:02.058Z,53.14
2024-03-08T13:31:29.784Z,53.19
2024-03-08T13:33:59.996Z,53.51
2024-03-08T13:36:30.867Z,53.90
2024-03-08T13:39:00.855Z,53.83
2024-03-08T13:41:30.287Z,54.19
2024-03-08T13:43:58.952Z,53.95
2024-03-08T13:46:26.256Z,53.79
2024-03-08T13:48:56.331Z,54.34
2024-03-08T13:51:24.128Z,54.81
2024-03-08T13:53:51.237Z,54.91
2024-03-08T13:56:18.717Z,53.91
2024-03-08T13:58:46.712Z,53.47
2024-03-08T14:01:14.118Z,52.99
2024-03-08T14:03:44.009Z,53.12
2024-03-08T14:08:52.948Z,53.15
2024-03-08T14:11:20.819Z,53.19
2024-03-08T14:13:49.128Z,53.35
2024-03-08T14:16:19.440Z,53.50
2024-03-08T14:18:46.586Z,52.74
2024-03-08T14:21:13.789Z,52.76
2024-03-08T14:23:44.450Z,53.55
2024-03-08T14:26:12.766Z,53.65
2024-03-08T14:28:40.651Z,53.78
2024-03-08T14:31:12.685Z,54.60
2024-03-08T14:33:39.887Z,54.94
2024-03-08T14:36:07.538Z,54.41
2024-03-08T14:38:36.471Z,54.64
2024-03-08T14:41:05.908Z,54.88
2024-03-08T14:43:33.686Z,54.52
2024-03-08T14:46:01.059Z,54.72
2024-03-08T14:48:28.693Z,55.18
2024-03-08T14:50:55.919Z,55.60
2024-03-08T14:53:23.166Z,55.47
2024-03-08T14:55:50.469Z,55.68
2024-03-08T14:58:17.794Z,55.38
2024-03-08T15:00:45.326Z,54.68
2024-03-08T15:03:18.336Z,54.49
2024-03-08T15:05:50.165Z,54.68
2024-03-08T15:08:21.659Z,55.25
2024-03-08T15:10:55.984Z,55.82
2024-03-08T15:13:24.734Z,56.31
2024-03-08T15:15:59.166Z,56.44
2024-03-08T15:18:29.680Z,56.42
2024-03-08T15:20:56.908Z,56.16
2024-03-08T15:23:24.101Z,56.16
2024-03-08T15:25:51.374Z,56.53
2024-03-08T15:28:21.934Z,56.88
2024-03-08T15:30:55.626Z,57.00
2024-03-08T15:33:28.803Z,57.34
2024-03-08T15:36:09.819Z,57.92
2024-03-08T15:38:40.094Z,58.10
2024-03-08T15:41:11.845Z,58.56
2024-03-08T15:43:39.106Z,58.59
2024-03-08T15:46:06.326Z,58.88
2024-03-08T15:48:34.337Z,59.28
2024-03-08T15:51:04.202Z,59.45
2024-03-08T15:53:35.147Z,59.76
2024-03-08T15:56:04.296Z,59.93
2024-03-08T15:58:31.906Z,60.07
2024-03-08T16:01:00.639Z,60.47
2024-03-08T16:03:32.419Z,60.78
2024-03-08T16:06:01.024Z,61.16
2024-03-08T16:08:28.691Z,61.37
2024-03-08T16:10:57.058Z,61.53
2024-03-08T16:13:26.244Z,61.81
2024-03-08T16:15:59.807Z,61.80
2024-03-08T16:18:27.148Z,61.90
2024-03-08T16:20:55.893Z,62.21
2024-03-08T16:23:24.422Z,62.93
2024-03-08T16:25:52.291Z,63.27
2024-03-08T16:28:21.598Z,63.22
2024-03-08T16:30:55.634Z,63.16
2024-03-08T16:33:23.897Z,63.03
2024-03-08T16:35:55.149Z,62.61
2024-03-08T16:38:22.383Z,62.33
2024-03-08T16:41:02.240Z,62.00
2024-03-08T16:43:29.675Z,61.85
2024-03-08T16:45:57.565Z,61.66
2024-03-08T16:48:25.642Z,61.31
2024-03-08T16:50:56.060Z,61.33
2024-03-08T16:53:23.370Z,61.23
2024-03-08T16:55:53.140Z,61.09
2024-03-08T16:58:22.970Z,60.96
2024-03-08T17:00:50.593Z,60.50
2024-03-08T17:03:18.255Z,60.55
2024-03-08T17:05:55.722Z,60.26
2024-03-08T17:08:24.114Z,60.21
2024-03-08T17:10:51.878Z,60.30
2024-03-08T17:13:20.121Z,60.56
2024-03-08T17:15:50.101Z,60.64
2024-03-08T17:18:17.744Z,60.88
2024-03-08T17:20:45.854Z,61.00
2024-03-08T17:23:15.290Z,61.08
2024-03-08T17:25:44.024Z,60.91
2024-03-08T17:28:13.892Z,60.81
2024-03-08T17:30:42.611Z,60.78
2024-03-08T17:33:16.620Z,60.82
2024-03-08T17:35:46.297Z,60.81
2024-03-08T17:38:20.536Z,60.98
2024-03-08T17:40:49.928Z,61.21
2024-03-08T17:43:22.825Z,61.30
2024-03-08T17:45:50.862Z,61.31
2024-03-08T17:48:21.211Z,61.15
2024-03-08T17:50:55.670Z,61.19
2024-03-08T17:53:23.035Z,61.32
2024-03-08T17:55:52.556Z,61.25
2024-03-08T17:58:21.746Z,61.48
2024-03-08T18:00:53.243Z,61.60
2024-03-08T18:03:26.179Z,61.89
2024-03-08T18:05:53.256Z,61.95
2024-03-08T18:08:20.536Z,61.88
2024-03-08T18:10:50.753Z,62.18
2024-03-08T18:13:18.017Z,62.28
2024-03-08T18:15:49.893Z,62.45
2024-03-08T18:18:18.913Z,62.53
2024-03-08T18:20:49.402Z,62.65
2024-03-08T18:23:18.799Z,62.83
2024-03-08T18:25:46.630Z,63.01
2024-03-08T18:28:14.852Z,63.00
2024-03-08T18:30:45.025Z,63.14
2024-03-08T18:33:15.947Z,63.33
2024-03-08T18:35:45.683Z,63.43
2024-03-08T18:38:13.469Z,63.60
2024-03-08T18:40:46.802Z,63.82
2024-03-08T18:43:17.152Z,64.22
2024-03-08T18:45:44.238Z,64.37
2024-03-08T18:48:13.278Z,64.43
2024-03-08T18:50:41.213Z,64.63
2024-03-08T18:53:09.356Z,63.85
2024-03-08T18:55:36.763Z,64.56
2024-03-08T18:58:04.231Z,64.70
2024-03-08T19:00:31.954Z,65.03
2024-03-08T19:03:18.418Z,64.93
2024-03-08T19:05:47.599Z,65.26
2024-03-08T19:08:15.836Z,65.38
2024-03-08T19:10:44.574Z,65.53
2024-03-08T19:13:13.540Z,65.54
2024-03-08T19:15:41.047Z,65.73
2024-03-08T19:18:12.828Z,65.94
2024-03-08T19:20:41.115Z,66.23
2024-03-08T19:23:11.125Z,66.40
2024-03-08T19:25:43.800Z,66.38
2024-03-08T19:28:16.003Z,66.33
2024-03-08T19:30:43.682Z,66.31
2024-03-08T19:33:14.346Z,66.18
2024-03-08T19:35:42.990Z,66.24
2024-03-08T19:38:13.846Z,66.50
2024-03-08T19:40:46.000Z,66.63
2024-03-08T19:43:17.452Z,66.28
2024-03-08T19:45:45.145Z,66.54
2024-03-08T19:48:18.546Z,66.67
2024-03-08T19:50:47.487Z,66.70
2024-03-08T19:53:18.594Z,66.65
2024-03-08T19:55:54.940Z,66.66
2024-03-08T19:58:23.563Z,66.81
2024-03-08T20:00:51.438Z,66.92
2024-03-08T20:03:23.632Z,66.91
2024-03-08T20:05:55.743Z,66.85
2024-03-08T20:08:25.519Z,66.80
2024-03-08T20:10:54.425Z,66.66
2024-03-08T20:13:21.728Z,66.55
2024-03-08T20:15:54.775Z,66.58
2024-03-08T20:18:27.985Z,66.74
2024-03-08T20:20:56.954Z,66.97
2024-03-08T20:23:27.799Z,67.10
2024-03-08T20:25:55.139Z,67.14
2024-03-08T20:28:22.544Z,67.35
2024-03-08T20:30:49.846Z,67.39
2024-03-08T20:33:17.675Z,67.33
2024-03-08T20:35:51.654Z,67.30
2024-03-08T20:38:22.964Z,67.28
2024-03-08T20:40:52.203Z,67.07
2024-03-08T20:43:22.474Z,67.01
2024-03-08T20:45:51.100Z,67.01
2024-03-08T20:48:22.365Z,67.10
2024-03-08T20:50:50.969Z,67.15
2024-03-08T20:53:18.845Z,67.11
2024-03-08T20:55:46.230Z,67.15
2024-03-08T20:58:14.692Z,67.17
2024-03-08T21:00:42.249Z,67.27
2024-03-08T21:03:15.542Z,67.27
2024-03-08T21:05:51.630Z,67.33
2024-03-08T21:08:29.100Z,67.60
2024-03-08T21:10:58.326Z,67.68
2024-03-08T21:13:26.665Z,67.60
2024-03-08T21:15:57.253Z,67.71
2024-03-08T21:18:26.879Z,67.71
2024-03-08T21:20:54.652Z,67.56
2024-03-08T21:23:22.368Z,67.43
2024-03-08T21:25:50.804Z,67.43
2024-03-08T21:28:20.516Z,67.72
2024-03-08T21:30:47.825Z,67.63
2024-03-08T21:33:15.526Z,67.89
2024-03-08T21:35:42.899Z,67.84
2024-03-08T21:38:12.450Z,67.83
2024-03-08T21:43:13.365Z,67.85
2024-03-08T21:45:41.184Z,67.96
2024-03-08T21:48:10.418Z,68.01
2024-03-08T21:50:37.704Z,67.96
2024-03-08T21:53:14.290Z,67.99
2024-03-08T21:55:49.226Z,67.84
2024-03-08T21:58:16.417Z,68.20
2024-03-08T22:00:44.087Z,68.52
2024-03-08T22:03:12.576Z,68.55
2024-03-08T22:05:39.672Z,68.73
2024-03-08T22:08:07.597Z,68.86
2024-03-08T22:10:34.696Z,68.67
2024-03-08T22:13:01.837Z,69.00
2024-03-08T22:15:31.312Z,69.48
2024-03-08T22:17:58.602Z,69.74
2024-03-08T22:20:33.406Z,69.68
2024-03-08T22:23:03.974Z,70.11
2024-03-08T22:25:32.503Z,70.33
2024-03-08T22:28:00.468Z,70.31
2024-03-08T22:30:27.991Z,69.89
2024-03-08T22:32:56.071Z,69.99
2024-03-08T22:35:26.136Z,70.84
2024-03-08T22:37:55.544Z,71.28
2024-03-08T22:40:26.932Z,71.60
2024-03-08T22:42:54.753Z,71.81
2024-03-08T22:45:22.443Z,72.06
2024-03-08T22:47:49.985Z,71.93
2024-03-08T22:50:19.026Z,71.78
2024-03-08T22:52:47.756Z,72.04
2024-03-08T22:55:21.363Z,72.18
2024-03-08T22:57:50.610Z,72.15
2024-03-08T23:00:39.002Z,72.03
2024-03-08T23:03:14.325Z,72.17
2024-03-08T23:05:44.250Z,72.23
2024-03-08T23:08:13.023Z,72.19
2024-03-08T23:10:41.422Z,72.23
2024-03-08T23:13:11.213Z,72.26
2024-03-08T23:15:43.179Z,72.67
2024-03-08T23:18:13.802Z,72.30
2024-03-08T23:20:45.169Z,72.55
2024-03-08T23:23:14.464Z,72.54
2024-03-08T23:25:42.515Z,72.61
2024-03-08T23:28:13.773Z,72.48
2024-03-08T23:30:42.323Z,72.72
2024-03-08T23:33:11.038Z,72.84
2024-03-08T23:35:39.991Z,72.87
2024-03-08T23:38:09.526Z,72.75
2024-03-08T23:40:37.774Z,72.71
2024-03-08T23:43:07.064Z,72.77
2024-03-08T23:45:35.806Z,72.66
2024-03-08T23:48:03.352Z,72.79
2024-03-08T23:50:32.509Z,72.75
2024-03-08T23:53:02.336Z,72.41
2024-03-08T23:55:34.340Z,72.86
2024-03-08T23:58:10.811Z,72.92
